Weather History for Troy, MI

Change the Weather History Date:

Tuesday, July 24, 2012

  Actual Average (KDET) Record (KDET)
Temperature  
Mean Temperature 76 °F -  
Max Temperature 85 °F 83 °F 95 °F (1965)
Min Temperature 68 °F 66 °F 52 °F (1953)
Cooling Degree Days 12    
Growing Degree Days 26 (Base 50)    
Moisture  
Dew Point 58 °F    
Average Humidity 48    
Maximum Humidity 64    
Minimum Humidity 30    
Precipitation  
Precipitation 0.00 in - - ()
Sea Level Pressure  
Sea Level Pressure 29.94 in    
Wind  
Wind Speed 5 mph (North)    
Max Wind Speed 15 mph    
Max Gust Speed 23 mph    
Visibility 10 miles    
Events      
Averages and records for this station are not official NWS values.
T = Trace of Precipitation, MM = Missing Value Source: NWS Daily Summary

Daily Weather History Graph

Daily Weather History Graph

Search for Another Location

Airport:

Trip Planner

Search our weather history database for the weather conditions in past years. The results will help you decide how hot, cold, wet, or windy it might be!

Date:

Astronomy

Jul. 24, 2012 Rise Set
Actual Time 6:17 AM EDT 9:00 PM EDT
Civil Twilight 5:44 AM EDT 9:33 PM EDT
Nautical Twilight 5:03 AM EDT 10:14 PM EDT
Astronomical Twilight 4:15 AM EDT 11:01 PM EDT
Moon 12:23 PM EDT (7/24) 11:38 PM EDT (7/24)
Length of Visible Light 15h 48m
Length of Day
14h 43m
Waxing Crescent, 31% of the Moon is Illuminated
Jul 24
Waxing Crescent
Jul 26
First Quarter
Aug 1
Full
Aug 9
Last Quarter
Aug 17
New

Hourly Weather History & Observations

Time (EDT) Temp. Heat Index Dew Point Humidity Pressure Visibility Wind Dir Wind Speed Gust Speed Precip Events Conditions
12:14 AM 85.1 °F 85.9 °F 62.8 °F 47% 29.87 in 10.0 mi Calm Calm - N/A   Clear
12:34 AM 84.4 °F 85.4 °F 63.5 °F 49% 29.87 in 10.0 mi Calm Calm - N/A   Clear
12:55 AM 83.3 °F 84.4 °F 63.7 °F 51% 29.87 in 10.0 mi Calm Calm - N/A   Clear
1:14 AM 83.3 °F 84.4 °F 63.5 °F 51% 29.87 in 10.0 mi Calm Calm - N/A   Clear
1:34 AM 82.8 °F 84.2 °F 63.9 °F 53% 29.87 in 10.0 mi WNW 4.6 mph - N/A   Clear
1:55 AM 82.4 °F 83.9 °F 64.4 °F 54% 29.87 in 10.0 mi WNW 4.6 mph - N/A   Clear
2:14 AM 81.9 °F 83.5 °F 64.6 °F 56% 29.87 in 10.0 mi WNW 5.8 mph - N/A   Clear
2:34 AM 81.5 °F 83.1 °F 64.6 °F 56% 29.87 in 10.0 mi WNW 6.9 mph - N/A   Clear
2:54 AM 81.1 °F 82.8 °F 64.8 °F 57% 29.87 in 10.0 mi NW 6.9 mph - N/A   Clear
3:14 AM 81.1 °F 83.1 °F 65.5 °F 59% 29.87 in 10.0 mi NNW 6.9 mph - N/A   Clear
3:35 AM 81.0 °F 82.9 °F 65.5 °F 59% 29.87 in 10.0 mi NNW 5.8 mph - N/A   Clear
3:54 AM 80.6 °F 82.5 °F 65.7 °F 60% 29.87 in 10.0 mi North 5.8 mph - N/A   Clear
4:14 AM 79.7 °F - 66.2 °F 63% 29.89 in 10.0 mi North 8.1 mph - N/A   Clear
4:35 AM 79.0 °F - 64.6 °F 61% 29.89 in 10.0 mi NE 5.8 mph - N/A   Clear
4:54 AM 77.9 °F - 64.0 °F 62% 29.89 in 10.0 mi NE 4.6 mph - N/A   Clear
5:14 AM 77.9 °F - 63.7 °F 61% 29.90 in 10.0 mi Calm Calm - N/A   Clear
5:35 AM 77.5 °F - 63.9 °F 63% 29.90 in 10.0 mi Calm Calm - N/A   Clear
5:54 AM 77.9 °F - 64.4 °F 63% 29.91 in 10.0 mi Calm Calm - N/A   Clear
6:14 AM 78.1 °F - 64.4 °F 63% 29.91 in 10.0 mi NW 3.5 mph - N/A   Clear
6:35 AM 77.9 °F - 64.9 °F 64% 29.92 in 10.0 mi NW 6.9 mph - N/A   Clear
6:54 AM 77.0 °F - 63.7 °F 63% 29.92 in 10.0 mi NW 4.6 mph - N/A   Clear
7:14 AM 77.0 °F - 63.3 °F 63% 29.91 in 10.0 mi WNW 3.5 mph - N/A   Clear
7:35 AM 77.2 °F - 63.0 °F 61% 29.91 in 10.0 mi NW 6.9 mph - N/A   Clear
7:54 AM 76.5 °F - 61.7 °F 60% 29.91 in 10.0 mi NNW 6.9 mph - N/A   Clear
8:15 AM 76.3 °F - 61.0 °F 59% 29.93 in 10.0 mi NW 10.4 mph - N/A   Clear
8:34 AM 75.7 °F - 60.3 °F 59% 29.94 in 10.0 mi NW 5.8 mph - N/A   Clear
8:54 AM 75.4 °F - 59.9 °F 58% 29.93 in 10.0 mi NW 8.1 mph - N/A   Clear
9:15 AM 75.6 °F - 60.3 °F 59% 29.94 in 10.0 mi NNW 6.9 mph - N/A   Clear
9:34 AM 76.8 °F - 60.3 °F 56% 29.95 in 10.0 mi NW 9.2 mph - N/A   Clear
9:54 AM 77.4 °F - 60.8 °F 57% 29.95 in 10.0 mi NW 10.4 mph - N/A   Clear
10:15 AM 77.7 °F - 61.2 °F 57% 29.95 in 10.0 mi NNW 8.1 mph - N/A   Scattered Clouds
10:34 AM 78.4 °F - 61.0 °F 55% 29.95 in 10.0 mi NW 6.9 mph - N/A   Scattered Clouds
10:54 AM 78.8 °F - 61.0 °F 54% 29.96 in 10.0 mi NW 11.5 mph - N/A   Scattered Clouds
11:15 AM 79.7 °F - 61.7 °F 54% 29.96 in 10.0 mi NNW 6.9 mph - N/A   Mostly Cloudy
11:34 AM 79.5 °F - 62.4 °F 56% 29.96 in 10.0 mi North 6.9 mph - N/A   Mostly Cloudy
11:54 AM 80.1 °F 81.1 °F 61.2 °F 52% 29.97 in 10.0 mi North 10.4 mph 20.7 mph N/A   Scattered Clouds
12:15 PM 81.0 °F 81.6 °F 60.1 °F 49% 29.98 in 10.0 mi NW 13.8 mph 18.4 mph N/A   Scattered Clouds
12:34 PM 81.0 °F 81.6 °F 59.9 °F 49% 29.96 in 10.0 mi WNW 4.6 mph - N/A   Scattered Clouds
12:54 PM 82.4 °F 82.5 °F 59.0 °F 45% 29.96 in 10.0 mi North 9.2 mph 17.3 mph N/A   Scattered Clouds
1:14 PM 82.4 °F 82.2 °F 57.6 °F 43% 29.96 in 10.0 mi North 10.4 mph 18.4 mph N/A   Mostly Cloudy
1:34 PM 82.9 °F 82.6 °F 57.6 °F 42% 29.96 in 10.0 mi North 12.7 mph 18.4 mph N/A   Scattered Clouds
1:55 PM 83.5 °F 82.6 °F 55.9 °F 39% 29.96 in 10.0 mi North 11.5 mph 18.4 mph N/A   Clear
2:14 PM 84.2 °F 83.5 °F 57.6 °F 40% 29.95 in 10.0 mi North 10.4 mph 16.1 mph N/A   Scattered Clouds
2:34 PM 84.4 °F 83.5 °F 56.8 °F 39% 29.95 in 10.0 mi North 10.4 mph 17.3 mph N/A   Scattered Clouds
2:54 PM 85.3 °F 84.3 °F 57.2 °F 38% 29.94 in 10.0 mi NNE 11.5 mph 18.4 mph N/A   Mostly Cloudy
3:15 PM 84.6 °F 84.0 °F 58.5 °F 41% 29.93 in 10.0 mi North 10.4 mph - N/A   Scattered Clouds
3:34 PM 84.4 °F 84.0 °F 58.6 °F 42% 29.93 in 10.0 mi NNE 13.8 mph 19.6 mph N/A   Scattered Clouds
3:54 PM 83.3 °F 82.6 °F 56.8 °F 40% 29.93 in 10.0 mi North 11.5 mph 16.1 mph N/A   Clear
4:15 PM 83.7 °F 82.5 °F 54.9 °F 37% 29.94 in 10.0 mi North 9.2 mph - N/A   Scattered Clouds
4:34 PM 83.1 °F - 51.8 °F 34% 29.94 in 10.0 mi North 12.7 mph 23.0 mph N/A   Scattered Clouds
4:55 PM 83.3 °F - 51.3 °F 33% 29.94 in 10.0 mi North 11.5 mph 18.4 mph N/A   Clear
5:14 PM 82.4 °F - 50.7 °F 33% 29.94 in 10.0 mi NNW 15.0 mph 19.6 mph N/A   Clear
5:34 PM 83.3 °F - 49.5 °F 31% 29.94 in 10.0 mi North 9.2 mph 18.4 mph N/A   Clear
5:55 PM 82.8 °F - 48.6 °F 30% 29.94 in 10.0 mi North 10.4 mph 18.4 mph N/A   Clear
6:14 PM 83.3 °F - 50.2 °F 32% 29.94 in 10.0 mi NNE 10.4 mph 20.7 mph N/A   Clear
6:34 PM 82.6 °F - 50.0 °F 32% 29.95 in 10.0 mi North 8.1 mph 18.4 mph N/A   Clear
6:55 PM 82.0 °F - 49.1 °F 32% 29.95 in 10.0 mi North 8.1 mph - N/A   Clear
7:14 PM 82.2 °F - 50.0 °F 33% 29.96 in 10.0 mi NE 9.2 mph - N/A   Scattered Clouds
7:34 PM 80.8 °F - 48.7 °F 33% 29.97 in 10.0 mi NNE 8.1 mph - N/A   Clear
7:55 PM 80.2 °F - 47.7 °F 32% 29.99 in 10.0 mi North 5.8 mph - N/A   Clear
8:14 PM 79.5 °F - 46.9 °F 32% 29.99 in 10.0 mi NE 8.1 mph - N/A   Clear
8:34 PM 77.7 °F - 49.1 °F 36% 30.00 in 10.0 mi NE 10.4 mph - N/A   Clear
8:55 PM 76.1 °F - 48.6 °F 38% 30.01 in 10.0 mi NE 8.1 mph 11.5 mph N/A   Clear
9:14 PM 74.7 °F - 48.9 °F 40% 30.02 in 10.0 mi NE 10.4 mph - N/A   Clear
9:34 PM 74.1 °F - 47.7 °F 39% 30.02 in 10.0 mi NE 9.2 mph - N/A   Clear
9:55 PM 72.9 °F - 47.1 °F 40% 30.02 in 10.0 mi NNE 8.1 mph - N/A   Clear
10:14 PM 72.0 °F - 46.9 °F 41% 30.02 in 10.0 mi NE 8.1 mph - N/A   Clear
10:54 PM 71.1 °F - 46.9 °F 42% 30.03 in 10.0 mi NE 5.8 mph - N/A   Clear
11:17 PM 70.0 °F - 47.7 °F 45% 30.03 in 10.0 mi Calm Calm - N/A   Clear
11:35 PM 69.1 °F - 48.2 °F 47% 30.03 in 10.0 mi Calm Calm - N/A   Clear
11:54 PM 68.9 °F - 48.2 °F 48% 30.03 in 10.0 mi Calm Calm - N/A   Clear
11:59 PM 68.9 °F - 48.2 °F 48% 30.03 in 10.0 mi Calm Calm - N/A   Clear